createdAt,value
2017-01-07T00:01:08.681Z,-19.91
2017-01-07T00:03:21.114Z,-19.84
2017-01-07T00:05:33.541Z,-19.64
2017-01-07T00:07:46.215Z,-19.66
2017-01-07T00:09:58.844Z,-19.57
2017-01-07T00:12:11.183Z,-19.73
2017-01-07T00:14:18.612Z,-19.81
2017-01-07T00:16:32.040Z,-19.93
2017-01-07T00:18:44.366Z,-20.08
2017-01-07T00:20:56.577Z,-19.69
2017-01-07T00:23:09.056Z,-19.31
2017-01-07T00:25:21.563Z,-19.63
2017-01-07T00:27:34.075Z,-19.83
2017-01-07T00:29:46.648Z,-20.04
2017-01-07T00:31:58.997Z,-20.22
2017-01-07T00:34:11.266Z,-20.28
2017-01-07T00:36:23.672Z,-20.34
2017-01-07T00:38:36.219Z,-20.36
2017-01-07T00:40:38.712Z,-20.29
2017-01-07T00:42:51.305Z,-20.2
2017-01-07T00:45:03.883Z,-19.74
2017-01-07T00:47:16.100Z,-19.73
2017-01-07T00:49:28.696Z,-19.77
2017-01-07T00:51:40.962Z,-19.33
2017-01-07T00:53:53.495Z,-19.05
2017-01-07T00:56:00.802Z,-19.12
2017-01-07T00:58:13.047Z,-18.98
2017-01-07T01:00:25.498Z,-18.95
2017-01-07T01:02:32.900Z,-19.33
2017-01-07T01:04:45.187Z,-19.6
2017-01-07T01:06:57.463Z,-19.88
2017-01-07T01:09:09.779Z,-20.01
2017-01-07T01:11:22.366Z,-20.02
2017-01-07T01:13:34.605Z,-19.78
2017-01-07T01:15:47.138Z,-19.83
2017-01-07T01:18:00.183Z,-19.74
2017-01-07T01:20:12.528Z,-19.57
2017-01-07T01:22:24.924Z,-19.64
2017-01-07T01:24:37.406Z,-19.84
2017-01-07T01:26:49.726Z,-19.77
2017-01-07T01:29:02.015Z,-19.99
2017-01-07T01:31:14.237Z,-20.19
2017-01-07T01:33:26.726Z,-20.22
2017-01-07T01:35:29.028Z,-20.37
2017-01-07T01:37:36.476Z,-20.41
2017-01-07T01:39:48.739Z,-20.37
2017-01-07T01:42:00.962Z,-20.3
2017-01-07T01:44:08.356Z,-20.23
2017-01-07T01:46:20.675Z,-20.33
2017-01-07T01:48:32.969Z,-20.41
2017-01-07T01:50:45.422Z,-20.47
2017-01-07T01:52:58.385Z,-20.5
2017-01-07T01:55:10.676Z,-20.41
2017-01-07T01:57:18.182Z,-20.37
2017-01-07T01:59:30.620Z,-20.3
2017-01-07T02:01:42.994Z,-20.43
2017-01-07T02:03:55.307Z,-20.43
2017-01-07T02:06:07.716Z,-20.41
2017-01-07T02:08:19.983Z,-20.52
2017-01-07T02:10:32.417Z,-20.75
2017-01-07T02:12:44.659Z,-20.74
2017-01-07T02:14:57.008Z,-20.78
2017-01-07T02:17:09.402Z,-20.86
2017-01-07T02:19:12.651Z,-20.87
2017-01-07T02:21:20.079Z,-20.87
2017-01-07T02:23:32.396Z,-20.85
2017-01-07T02:25:45.051Z,-20.67
2017-01-07T02:27:57.757Z,-20.55
2017-01-07T02:30:10.106Z,-20.22
2017-01-07T02:32:22.383Z,-19.96
2017-01-07T02:34:29.859Z,-19.85
2017-01-07T02:36:42.090Z,-20.08
2017-01-07T02:38:54.399Z,-20.19
2017-01-07T02:41:07.913Z,-20.37
2017-01-07T02:43:21.398Z,-20.65
2017-01-07T02:45:33.816Z,-20.83
2017-01-07T02:47:46.091Z,-20.91
2017-01-07T02:49:58.362Z,-20.91
2017-01-07T02:52:10.659Z,-20.78
2017-01-07T02:54:23.072Z,-20.91
2017-01-07T02:56:35.442Z,-20.97
2017-01-07T02:58:43.000Z,-20.87
2017-01-07T03:00:55.871Z,-20.93
2017-01-07T03:03:08.377Z,-20.98
2017-01-07T03:05:20.998Z,-21.12
2017-01-07T03:07:33.318Z,-21.11
2017-01-07T03:09:45.700Z,-21.11
2017-01-07T03:11:48.152Z,-20.91
2017-01-07T03:14:00.485Z,-20.76
2017-01-07T03:16:12.976Z,-20.85
2017-01-07T03:18:25.481Z,-20.87
2017-01-07T03:20:37.838Z,-20.96
2017-01-07T03:22:45.260Z,-21
2017-01-07T03:24:57.521Z,-20.93
2017-01-07T03:27:09.781Z,-20.96
2017-01-07T03:29:22.170Z,-20.78
2017-01-07T03:31:34.393Z,-20.85
2017-01-07T03:33:46.636Z,-20.94
2017-01-07T03:35:59.117Z,-20.98
2017-01-07T03:38:11.689Z,-20.96
2017-01-07T03:40:23.916Z,-20.64
2017-01-07T03:42:31.262Z,-20.55
2017-01-07T03:44:43.578Z,-20.57
2017-01-07T03:46:50.953Z,-20.16
2017-01-07T03:48:58.440Z,-20.07
2017-01-07T03:51:10.750Z,-20.15
2017-01-07T03:53:23.076Z,-20.08
2017-01-07T03:55:35.497Z,-19.96
2017-01-07T03:57:47.962Z,-20.22
2017-01-07T04:00:00.222Z,-20.4
2017-01-07T04:02:12.471Z,-20.61
2017-01-07T04:04:24.976Z,-20.75
2017-01-07T04:06:32.390Z,-20.85
2017-01-07T04:08:44.894Z,-20.93
2017-01-07T04:10:57.584Z,-21.04
2017-01-07T04:13:10.310Z,-20.98
2017-01-07T04:15:22.679Z,-20.87
2017-01-07T04:17:34.995Z,-20.78
2017-01-07T04:19:47.289Z,-20.67
2017-01-07T04:21:59.611Z,-20.4
2017-01-07T04:24:12.149Z,-20.15
2017-01-07T04:26:24.416Z,-19.85
2017-01-07T04:28:36.838Z,-19.51
2017-01-07T04:30:49.096Z,-19.2
2017-01-07T04:33:01.709Z,-18.94
2017-01-07T04:35:13.933Z,-18.74
2017-01-07T04:37:26.251Z,-18.42
2017-01-07T04:39:33.726Z,-18.25
2017-01-07T04:41:46.124Z,-18.11
2017-01-07T04:43:58.706Z,-18
2017-01-07T04:46:11.737Z,-17.89
2017-01-07T04:48:24.559Z,-17.84
2017-01-07T04:50:31.928Z,-17.79
2017-01-07T04:52:44.365Z,-17.71
2017-01-07T04:54:56.858Z,-17.63
2017-01-07T04:57:04.231Z,-17.48
2017-01-07T04:59:16.662Z,-17.28
2017-01-07T05:01:28.994Z,-17.12
2017-01-07T05:03:41.457Z,-16.92
2017-01-07T05:05:53.852Z,-16.8
2017-01-07T05:08:06.160Z,-16.7
2017-01-07T05:10:18.557Z,-16.6
2017-01-07T05:12:31.074Z,-16.44
2017-01-07T05:14:43.387Z,-16.26
2017-01-07T05:16:55.676Z,-16.11
2017-01-07T05:19:08.200Z,-15.94
2017-01-07T05:21:21.145Z,-15.78
2017-01-07T05:23:33.697Z,-15.67
2017-01-07T05:25:46.024Z,-15.6
2017-01-07T05:27:58.385Z,-15.48
2017-01-07T05:30:10.726Z,-15.42
2017-01-07T05:32:23.118Z,-15.38
2017-01-07T05:34:35.510Z,-15.38
2017-01-07T05:36:48.027Z,-15.31
2017-01-07T05:39:00.545Z,-15.29
2017-01-07T05:41:12.804Z,-15.27
2017-01-07T05:43:25.120Z,-15.27
2017-01-07T05:45:37.540Z,-15.31
2017-01-07T05:47:50.049Z,-15.29
2017-01-07T05:49:57.419Z,-15.31
2017-01-07T05:52:09.776Z,-15.29
2017-01-07T05:54:22.259Z,-15.27
2017-01-07T05:56:35.317Z,-15.27
2017-01-07T05:58:47.890Z,-15.2
2017-01-07T06:00:55.594Z,-15.13
2017-01-07T06:03:03.140Z,-15.03
2017-01-07T06:05:15.439Z,-14.89
2017-01-07T06:07:28.020Z,-14.78
2017-01-07T06:09:40.275Z,-14.67
2017-01-07T06:11:52.783Z,-14.55
2017-01-07T06:14:00.168Z,-14.42
2017-01-07T06:16:02.598Z,-14.34
2017-01-07T06:18:14.976Z,-14.24
2017-01-07T06:20:27.586Z,-14.17
2017-01-07T06:22:39.942Z,-14.13
2017-01-07T06:24:52.254Z,-14.04
2017-01-07T06:26:59.573Z,-14.02
2017-01-07T06:29:11.911Z,-13.92
2017-01-07T06:31:24.531Z,-13.85
2017-01-07T06:33:37.561Z,-13.81
2017-01-07T06:35:45.071Z,-13.75
2017-01-07T06:37:57.419Z,-13.67
2017-01-07T06:40:09.850Z,-13.61
2017-01-07T06:42:17.150Z,-13.57
2017-01-07T06:44:29.626Z,-13.56
2017-01-07T06:46:42.000Z,-13.51
2017-01-07T06:48:54.474Z,-13.49
2017-01-07T06:51:07.146Z,-13.45
2017-01-07T06:53:19.577Z,-13.39
2017-01-07T06:55:31.939Z,-13.33
2017-01-07T06:57:45.105Z,-13.25
2017-01-07T06:59:57.496Z,-13.18
2017-01-07T07:02:10.022Z,-13.11
2017-01-07T07:04:22.417Z,-13.01
2017-01-07T07:06:34.958Z,-12.96
2017-01-07T07:08:47.926Z,-12.9
2017-01-07T07:11:00.109Z,-12.86
2017-01-07T07:13:12.637Z,-12.79
2017-01-07T07:15:24.888Z,-12.72
2017-01-07T07:17:37.352Z,-12.71
2017-01-07T07:19:44.739Z,-12.67
2017-01-07T07:21:57.037Z,-12.68
2017-01-07T07:24:09.428Z,-12.74
2017-01-07T07:26:21.969Z,-12.86
2017-01-07T07:28:34.253Z,-13.01
2017-01-07T07:30:46.526Z,-13.24
2017-01-07T07:32:59.025Z,-13.4
2017-01-07T07:35:12.367Z,-13.49
2017-01-07T07:37:24.757Z,-13.51
2017-01-07T07:39:37.161Z,-13.56
2017-01-07T07:41:44.694Z,-13.57
2017-01-07T07:43:57.688Z,-13.57
2017-01-07T07:46:10.450Z,-13.61
2017-01-07T07:48:22.780Z,-13.57
2017-01-07T07:50:35.223Z,-13.38
2017-01-07T07:52:47.611Z,-13.25
2017-01-07T07:54:55.017Z,-13.11
2017-01-07T07:57:07.615Z,-12.97
2017-01-07T07:59:15.126Z,-12.83
2017-01-07T08:01:27.361Z,-12.65
2017-01-07T08:03:39.677Z,-12.44
2017-01-07T08:05:51.907Z,-12.19
2017-01-07T08:07:59.249Z,-12
2017-01-07T08:10:11.501Z,-11.89
2017-01-07T08:12:14.055Z,-11.75
2017-01-07T08:14:26.590Z,-11.61
2017-01-07T08:16:38.910Z,-11.48
2017-01-07T08:18:46.738Z,-11.32
2017-01-07T08:20:59.575Z,-11.22
2017-01-07T08:23:12.122Z,-11.18
2017-01-07T08:25:24.596Z,-11.08
2017-01-07T08:27:36.898Z,-11
2017-01-07T08:29:44.310Z,-11.04
2017-01-07T08:31:56.641Z,-11.11
2017-01-07T08:34:09.221Z,-11.09
2017-01-07T08:36:16.680Z,-11.04
2017-01-07T08:38:29.209Z,-10.93
2017-01-07T08:40:41.796Z,-10.78
2017-01-07T08:42:54.292Z,-10.71
2017-01-07T08:45:02.053Z,-10.6
2017-01-07T08:47:14.305Z,-10.55
2017-01-07T08:49:26.684Z,-10.54
2017-01-07T08:51:34.254Z,-10.47
2017-01-07T08:53:47.116Z,-10.37
2017-01-07T08:55:59.596Z,-10.26
2017-01-07T08:58:11.939Z,-10.07
2017-01-07T09:00:24.388Z,-9.83
2017-01-07T09:02:36.932Z,-9.62
2017-01-07T09:04:49.249Z,-9.32
2017-01-07T09:07:01.618Z,-9.15
2017-01-07T09:09:14.119Z,-9.04
2017-01-07T09:11:26.626Z,-8.81
2017-01-07T09:13:38.952Z,-8.69
2017-01-07T09:15:46.855Z,-8.58
2017-01-07T09:17:59.222Z,-8.47
2017-01-07T09:20:11.479Z,-8.31
2017-01-07T09:22:23.651Z,-8.19
2017-01-07T09:24:35.914Z,-8.18
2017-01-07T09:26:48.157Z,-8.08
2017-01-07T09:28:55.826Z,-7.83
2017-01-07T09:30:58.274Z,-7.61
2017-01-07T09:33:10.486Z,-7.46
2017-01-07T09:35:22.771Z,-7.34
2017-01-07T09:37:35.194Z,-7.33
2017-01-07T09:39:47.692Z,-7.33
2017-01-07T09:42:00.068Z,-7.19
2017-01-07T09:44:12.505Z,-7.19
2017-01-07T09:46:19.778Z,-7.08
2017-01-07T09:48:32.090Z,-7.05
2017-01-07T09:50:44.277Z,-7.18
2017-01-07T09:52:56.555Z,-7.19
2017-01-07T09:55:08.907Z,-7.12
2017-01-07T09:57:21.396Z,-7.29
2017-01-07T09:59:33.696Z,-7.11
2017-01-07T10:01:46.163Z,-7.07
2017-01-07T10:03:58.839Z,-7.25
2017-01-07T10:06:06.225Z,-7.19
2017-01-07T10:08:18.521Z,-7.07
2017-01-07T10:10:30.909Z,-7.04
2017-01-07T10:12:43.396Z,-7.16
2017-01-07T10:14:50.793Z,-7.18
2017-01-07T10:17:02.247Z,-6.84
2017-01-07T10:19:14.508Z,-6.58
2017-01-07T10:21:27.074Z,-6.39
2017-01-07T10:23:40.792Z,-6.21
2017-01-07T10:25:54.392Z,-6.19
2017-01-07T10:28:11.456Z,-6.22
2017-01-07T10:30:26.020Z,-6.19
2017-01-07T10:32:38.825Z,-6.19
2017-01-07T10:34:53.057Z,-6.13
2017-01-07T10:37:05.748Z,-6.28
2017-01-07T10:39:18.822Z,-6.68
2017-01-07T10:41:31.198Z,-6.61
2017-01-07T10:43:45.759Z,-6.03
2017-01-07T10:46:00.315Z,-5.29
2017-01-07T10:48:07.614Z,-4.87
2017-01-07T10:50:22.044Z,-4.92
2017-01-07T10:52:35.226Z,-4.93
2017-01-07T10:54:48.521Z,-5.25
2017-01-07T10:57:01.119Z,-5.06
2017-01-07T10:59:13.361Z,-5.3
2017-01-07T11:01:23.085Z,-5.47
2017-01-07T11:03:35.549Z,-5.13
2017-01-07T11:05:47.735Z,-4.86
2017-01-07T11:08:00.975Z,-5
2017-01-07T11:10:16.643Z,-4.87
2017-01-07T11:12:24.477Z,-4.99
2017-01-07T11:14:36.892Z,-5.13
2017-01-07T11:16:44.265Z,-5.03
2017-01-07T11:18:59.748Z,-4.92
2017-01-07T11:21:15.622Z,-4.95
2017-01-07T11:23:28.461Z,-4.67
2017-01-07T11:25:36.723Z,-4.36
2017-01-07T11:27:48.904Z,-4.04
2017-01-07T11:30:01.557Z,-3.79
2017-01-07T11:32:14.035Z,-3.64
2017-01-07T11:34:26.966Z,-4.11
2017-01-07T11:36:39.169Z,-4.24
2017-01-07T11:38:51.782Z,-4.49
2017-01-07T11:40:59.148Z,-4.56
2017-01-07T11:43:11.557Z,-4.95
2017-01-07T11:45:25.184Z,-5.14
2017-01-07T11:47:47.642Z,-4.78
2017-01-07T11:50:01.795Z,-4.4
2017-01-07T11:52:15.926Z,-4.49
2017-01-07T11:54:29.556Z,-4.74
2017-01-07T11:56:42.286Z,-4.89
2017-01-07T11:58:58.926Z,-4.69
2017-01-07T12:01:38.703Z,-4.89
2017-01-07T12:04:28.043Z,-5.13
2017-01-07T12:07:17.113Z,-5.1
2017-01-07T12:10:07.271Z,-4.61
2017-01-07T12:12:59.958Z,-4.57
2017-01-07T12:15:52.112Z,-4.33
2017-01-07T12:18:41.058Z,-4.54
2017-01-07T12:21:28.371Z,-4.65
2017-01-07T12:24:08.041Z,-4.72
2017-01-07T12:26:50.345Z,-4.74
2017-01-07T12:29:53.085Z,-4.58
2017-01-07T12:32:39.355Z,-4.29
2017-01-07T12:35:22.798Z,-4.1
2017-01-07T12:37:51.028Z,-3.86
2017-01-07T12:40:05.805Z,-3.91
2017-01-07T12:42:22.485Z,-3.45
2017-01-07T12:45:04.538Z,-2.78
2017-01-07T12:47:38.086Z,-2.42
2017-01-07T12:50:10.420Z,-2.52
2017-01-07T12:52:42.651Z,-2.73
2017-01-07T12:55:01.944Z,-3.03
2017-01-07T12:57:16.618Z,-3.03
2017-01-07T12:59:28.920Z,-2.94
2017-01-07T13:01:42.697Z,-2.91
2017-01-07T13:03:57.775Z,-2.94
2017-01-07T13:06:10.331Z,-2.99
2017-01-07T13:08:23.803Z,-3.02
2017-01-07T13:10:40.392Z,-3
2017-01-07T13:13:02.145Z,-3.14
2017-01-07T13:15:16.443Z,-3.42
2017-01-07T13:17:30.252Z,-3.57
2017-01-07T13:19:40.376Z,-3.54
2017-01-07T13:22:41.602Z,-3.52
2017-01-07T13:25:26.694Z,-3.46
2017-01-07T13:27:59.531Z,-3.49
2017-01-07T13:30:30.544Z,-3.35
2017-01-07T13:33:00.607Z,-3.45
2017-01-07T13:35:28.443Z,-3.53
2017-01-07T13:37:58.505Z,-3.76
2017-01-07T13:40:35.497Z,-3.71
2017-01-07T13:43:07.938Z,-3.6
2017-01-07T13:45:35.530Z,-3.72
2017-01-07T13:48:12.322Z,-3.82
2017-01-07T13:50:25.001Z,-3.93
2017-01-07T13:52:38.831Z,-3.96
2017-01-07T13:54:55.371Z,-4.29
2017-01-07T13:57:03.996Z,-4.51
2017-01-07T13:59:07.875Z,-4.6
2017-01-07T14:01:20.140Z,-4.65
2017-01-07T14:03:32.378Z,-4.77
2017-01-07T14:05:45.267Z,-4.9
2017-01-07T14:08:01.496Z,-4.95
2017-01-07T14:10:16.542Z,-5.06
2017-01-07T14:12:35.270Z,-4.99
2017-01-07T14:15:09.718Z,-5.08
2017-01-07T14:17:42.828Z,-5.04
2017-01-07T14:19:58.213Z,-4.9
2017-01-07T14:22:46.207Z,-4.96
2017-01-07T14:25:34.055Z,-4.95
2017-01-07T14:28:21.356Z,-4.86
2017-01-07T14:31:10.767Z,-4.72
2017-01-07T14:33:35.825Z,-5
2017-01-07T14:36:16.853Z,-5.08
2017-01-07T14:39:03.754Z,-5.03
2017-01-07T14:41:49.363Z,-5.14
2017-01-07T14:44:34.770Z,-5.27
2017-01-07T14:47:21.934Z,-5.37
2017-01-07T14:50:05.617Z,-5.36
2017-01-07T14:52:49.306Z,-5.46
2017-01-07T14:55:33.759Z,-5.47
2017-01-07T14:58:18.994Z,-5.48
2017-01-07T15:00:52.890Z,-5.48
2017-01-07T15:03:11.096Z,-5.5
2017-01-07T15:05:23.500Z,-5.53
2017-01-07T15:07:40.460Z,-5.5
2017-01-07T15:10:00.202Z,-5.47
2017-01-07T15:12:21.670Z,-5.51
2017-01-07T15:14:40.437Z,-5.55
2017-01-07T15:16:57.476Z,-5.64
2017-01-07T15:19:15.110Z,-5.72
2017-01-07T15:21:36.826Z,-5.8
2017-01-07T15:24:05.752Z,-5.84
2017-01-07T15:26:32.253Z,-5.9
2017-01-07T15:28:58.229Z,-5.94
2017-01-07T15:31:14.772Z,-6.01
2017-01-07T15:33:33.666Z,-6.04
2017-01-07T15:36:09.919Z,-6.07
2017-01-07T15:38:34.292Z,-6.08
2017-01-07T15:40:36.801Z,-6.08
2017-01-07T15:42:49.165Z,-6.1
2017-01-07T15:45:02.809Z,-6.08
2017-01-07T15:47:12.350Z,-6.08
2017-01-07T15:49:24.808Z,-6.05
2017-01-07T15:51:37.297Z,-6.15
2017-01-07T15:53:49.648Z,-6.21
2017-01-07T15:56:02.130Z,-6.26
2017-01-07T15:58:12.856Z,-6.28
2017-01-07T16:00:26.015Z,-6.31
2017-01-07T16:02:34.283Z,-6.28
2017-01-07T16:04:55.693Z,-6.28
2017-01-07T16:07:08.211Z,-6.26
2017-01-07T16:09:22.869Z,-6.25
2017-01-07T16:11:36.555Z,-6.23
2017-01-07T16:13:49.853Z,-6.21
2017-01-07T16:16:03.352Z,-6.21
2017-01-07T16:18:23.226Z,-6.22
2017-01-07T16:20:43.690Z,-6.21
2017-01-07T16:22:57.091Z,-6.23
2017-01-07T16:25:10.776Z,-6.21
2017-01-07T16:27:23.230Z,-6.22
2017-01-07T16:29:30.685Z,-6.19
2017-01-07T16:31:43.940Z,-6.18
2017-01-07T16:33:57.718Z,-6.15
2017-01-07T16:36:10.255Z,-6.13
2017-01-07T16:38:18.472Z,-6.1
2017-01-07T16:40:30.944Z,-6.11
2017-01-07T16:42:39.161Z,-6.08
2017-01-07T16:44:52.105Z,-6.08
2017-01-07T16:47:06.013Z,-6.08
2017-01-07T16:49:18.699Z,-6.08
2017-01-07T16:51:26.236Z,-6.07
2017-01-07T16:53:39.344Z,-6.07
2017-01-07T16:55:52.969Z,-6.03
2017-01-07T16:58:05.244Z,-6.05
2017-01-07T17:00:14.178Z,-6.07
2017-01-07T17:02:26.536Z,-6.1
2017-01-07T17:04:41.026Z,-6.08
2017-01-07T17:06:56.892Z,-6.07
2017-01-07T17:09:05.520Z,-6.04
2017-01-07T17:11:18.094Z,-6.04
2017-01-07T17:13:32.225Z,-6.07
2017-01-07T17:15:45.445Z,-6.05
2017-01-07T17:17:58.095Z,-6.05
2017-01-07T17:20:10.835Z,-6.03
2017-01-07T17:22:18.687Z,-6.03
2017-01-07T17:24:32.113Z,-6
2017-01-07T17:26:46.855Z,-6
2017-01-07T17:29:01.397Z,-6
2017-01-07T17:31:11.969Z,-6
2017-01-07T17:33:24.519Z,-5.93
2017-01-07T17:35:32.000Z,-5.89
2017-01-07T17:37:46.078Z,-5.89
2017-01-07T17:39:53.805Z,-5.87
2017-01-07T17:42:11.536Z,-5.86
2017-01-07T17:44:24.641Z,-5.86
2017-01-07T17:46:42.266Z,-5.86
2017-01-07T17:48:49.671Z,-5.83
2017-01-07T17:51:04.718Z,-5.86
2017-01-07T17:53:18.488Z,-5.84
2017-01-07T17:55:33.786Z,-5.87
2017-01-07T17:57:48.279Z,-5.87
2017-01-07T18:00:02.889Z,-5.82
2017-01-07T18:02:15.363Z,-5.79
2017-01-07T18:04:28.353Z,-5.75
2017-01-07T18:06:41.956Z,-5.72
2017-01-07T18:08:54.277Z,-5.71
2017-01-07T18:11:07.645Z,-5.69
2017-01-07T18:13:20.138Z,-5.69
2017-01-07T18:15:32.503Z,-5.68
2017-01-07T18:17:47.187Z,-5.68
2017-01-07T18:20:02.852Z,-5.66
2017-01-07T18:22:11.571Z,-5.66
2017-01-07T18:24:28.019Z,-5.65
2017-01-07T18:26:42.348Z,-5.66
2017-01-07T18:28:57.515Z,-5.64
2017-01-07T18:31:07.544Z,-5.65
2017-01-07T18:33:17.051Z,-5.65
2017-01-07T18:35:33.221Z,-5.64
2017-01-07T18:37:47.243Z,-5.64
2017-01-07T18:40:02.775Z,-5.62
2017-01-07T18:42:17.231Z,-5.64
2017-01-07T18:44:28.974Z,-5.59
2017-01-07T18:46:42.191Z,-5.61
2017-01-07T18:49:03.395Z,-5.57
2017-01-07T18:51:17.866Z,-5.53
2017-01-07T18:53:31.536Z,-5.53
2017-01-07T18:55:47.083Z,-5.48
2017-01-07T18:58:03.934Z,-5.5
2017-01-07T19:00:17.599Z,-5.47
2017-01-07T19:02:31.694Z,-5.46
2017-01-07T19:04:47.117Z,-5.44
2017-01-07T19:07:06.102Z,-5.39
2017-01-07T19:09:19.420Z,-5.37
2017-01-07T19:11:33.945Z,-5.36
2017-01-07T19:13:49.421Z,-5.37
2017-01-07T19:15:58.004Z,-5.36
2017-01-07T19:18:27.451Z,-5.36
2017-01-07T19:20:40.645Z,-5.35
2017-01-07T19:23:13.999Z,-5.3
2017-01-07T19:25:36.014Z,-5.29
2017-01-07T19:27:51.021Z,-5.3
2017-01-07T19:30:06.266Z,-5.27
2017-01-07T19:32:23.063Z,-5.27
2017-01-07T19:34:39.355Z,-5.27
2017-01-07T19:36:51.922Z,-5.27
2017-01-07T19:39:06.524Z,-5.29
2017-01-07T19:41:20.510Z,-5.29
2017-01-07T19:43:35.608Z,-5.3
2017-01-07T19:45:50.601Z,-5.27
2017-01-07T19:48:06.457Z,-5.23
2017-01-07T19:50:22.313Z,-5.22
2017-01-07T19:52:40.847Z,-5.22
2017-01-07T19:54:49.077Z,-5.19
2017-01-07T19:57:01.781Z,-5.19
2017-01-07T19:59:16.799Z,-5.18
2017-01-07T20:01:31.684Z,-5.14
2017-01-07T20:03:46.179Z,-5.17
2017-01-07T20:06:01.249Z,-5.14
2017-01-07T20:08:16.084Z,-5.18
2017-01-07T20:10:29.729Z,-5.23
2017-01-07T20:12:42.347Z,-5.25
2017-01-07T20:14:56.017Z,-5.26
2017-01-07T20:17:05.096Z,-5.26
2017-01-07T20:19:20.170Z,-5.3
2017-01-07T20:21:34.444Z,-5.32
2017-01-07T20:23:47.132Z,-5.36
2017-01-07T20:25:57.417Z,-5.36
2017-01-07T20:28:15.683Z,-5.37
2017-01-07T20:30:30.292Z,-5.37
2017-01-07T20:32:44.469Z,-5.41
2017-01-07T20:34:59.200Z,-5.41
2017-01-07T20:37:17.302Z,-5.41
2017-01-07T20:39:33.499Z,-5.37
2017-01-07T20:41:46.659Z,-5.36
2017-01-07T20:43:57.185Z,-5.33
2017-01-07T20:46:12.802Z,-5.32
2017-01-07T20:48:27.206Z,-5.27
2017-01-07T20:50:44.331Z,-5.27
2017-01-07T20:52:53.938Z,-5.27
2017-01-07T20:55:07.287Z,-5.23
2017-01-07T20:57:22.523Z,-5.22
2017-01-07T20:59:37.590Z,-5.18
2017-01-07T21:01:54.611Z,-5.22
2017-01-07T21:04:07.423Z,-5.27
2017-01-07T21:06:21.185Z,-5.32
2017-01-07T21:08:32.535Z,-5.36
2017-01-07T21:10:47.141Z,-5.37
2017-01-07T21:13:03.350Z,-5.46
2017-01-07T21:15:18.331Z,-5.46
2017-01-07T21:17:26.866Z,-5.47
2017-01-07T21:19:41.450Z,-5.5
2017-01-07T21:21:56.856Z,-5.53
2017-01-07T21:24:10.451Z,-5.54
2017-01-07T21:26:25.695Z,-5.53
2017-01-07T21:28:33.712Z,-5.51
2017-01-07T21:30:48.428Z,-5.5
2017-01-07T21:33:03.515Z,-5.5
2017-01-07T21:35:20.417Z,-5.47
2017-01-07T21:37:42.300Z,-5.47
2017-01-07T21:39:55.311Z,-5.46
2017-01-07T21:42:08.595Z,-5.43
2017-01-07T21:44:20.650Z,-5.43
2017-01-07T21:46:38.581Z,-5.41
2017-01-07T21:48:53.225Z,-5.41
2017-01-07T21:51:10.570Z,-5.41
2017-01-07T21:53:19.961Z,-5.43
2017-01-07T21:55:39.245Z,-5.37
2017-01-07T21:57:50.021Z,-5.37
2017-01-07T22:00:09.722Z,-5.36
2017-01-07T22:02:20.283Z,-5.35
2017-01-07T22:04:35.437Z,-5.35
2017-01-07T22:06:49.120Z,-5.33
2017-01-07T22:09:03.202Z,-5.32
2017-01-07T22:11:20.331Z,-5.32
2017-01-07T22:13:35.469Z,-5.32
2017-01-07T22:15:52.172Z,-5.33
2017-01-07T22:18:06.658Z,-5.33
2017-01-07T22:20:20.515Z,-5.33
2017-01-07T22:22:42.104Z,-5.33
2017-01-07T22:24:57.702Z,-5.35
2017-01-07T22:27:10.656Z,-5.33
2017-01-07T22:29:25.545Z,-5.35
2017-01-07T22:31:40.823Z,-5.32
2017-01-07T22:33:54.779Z,-5.3
2017-01-07T22:36:10.666Z,-5.26
2017-01-07T22:38:20.571Z,-5.23
2017-01-07T22:40:37.816Z,-5.23
2017-01-07T22:43:02.029Z,-5.18
2017-01-07T22:45:18.671Z,-5.13
2017-01-07T22:47:36.575Z,-5.11
2017-01-07T22:49:50.958Z,-5.1
2017-01-07T22:52:08.141Z,-5.08
2017-01-07T22:54:23.165Z,-5.06
2017-01-07T22:56:36.153Z,-5.06
2017-01-07T22:58:54.100Z,-5.06
2017-01-07T23:01:08.689Z,-5.04
2017-01-07T23:03:16.817Z,-5
2017-01-07T23:05:37.627Z,-4.96
2017-01-07T23:07:56.020Z,-4.92
2017-01-07T23:10:11.897Z,-4.9
2017-01-07T23:12:27.888Z,-4.89
2017-01-07T23:14:41.569Z,-4.86
2017-01-07T23:16:56.470Z,-4.85
2017-01-07T23:19:16.950Z,-4.83
2017-01-07T23:21:31.712Z,-4.85
2017-01-07T23:23:50.333Z,-4.81
2017-01-07T23:25:57.786Z,-4.83
2017-01-07T23:28:12.825Z,-4.83
2017-01-07T23:30:25.444Z,-4.79
2017-01-07T23:32:38.254Z,-4.81
2017-01-07T23:34:58.538Z,-4.79
2017-01-07T23:37:17.514Z,-4.78
2017-01-07T23:39:37.497Z,-4.75
2017-01-07T23:41:55.109Z,-4.74
2017-01-07T23:44:07.626Z,-4.74
2017-01-07T23:46:17.957Z,-4.71
2017-01-07T23:48:25.816Z,-4.71
2017-01-07T23:50:33.246Z,-4.69
2017-01-07T23:52:40.811Z,-4.69
2017-01-07T23:54:53.852Z,-4.68
2017-01-07T23:57:06.190Z,-4.67
2017-01-07T23:59:18.592Z,-4.67
